createdAt,value
2023-04-15T00:00:07.530Z,96658.27
2023-04-15T00:03:02.497Z,96662.48
2023-04-15T00:05:31.883Z,96665.33
2023-04-15T00:08:01.507Z,96668.33
2023-04-15T00:10:29.670Z,96668.69
2023-04-15T00:12:57.650Z,96671.13
2023-04-15T00:15:25.714Z,96677.21
2023-04-15T00:17:53.808Z,96676.70
2023-04-15T00:20:22.062Z,96670.75
2023-04-15T00:22:50.469Z,96670.67
2023-04-15T00:25:18.506Z,96666.23
2023-04-15T00:27:46.687Z,96662.73
2023-04-15T00:30:17.111Z,96667.10
2023-04-15T00:32:46.017Z,96670.58
2023-04-15T00:35:14.294Z,96670.63
2023-04-15T00:37:44.216Z,96668.20
2023-04-15T00:40:17.481Z,96668.01
2023-04-15T00:42:45.976Z,96673.42
2023-04-15T00:45:15.870Z,96675.29
2023-04-15T00:47:45.010Z,96678.23
2023-04-15T00:50:13.465Z,96680.08
2023-04-15T00:52:42.052Z,96679.39
2023-04-15T00:55:11.377Z,96674.55
2023-04-15T00:57:40.939Z,96666.83
2023-04-15T01:00:11.516Z,96667.20
2023-04-15T01:02:40.588Z,96668.85
2023-04-15T01:05:09.671Z,96669.43
2023-04-15T01:07:37.528Z,96665.31
2023-04-15T01:10:06.111Z,96662.20
2023-04-15T01:12:34.628Z,96659.95
2023-04-15T01:15:04.655Z,96656.90
2023-04-15T01:17:33.206Z,96656.58
2023-04-15T01:20:01.270Z,96653.98
2023-04-15T01:22:34.769Z,96655.56
2023-04-15T01:25:17.881Z,96656.48
2023-04-15T01:27:46.860Z,96654.94
2023-04-15T01:30:15.673Z,96652.33
2023-04-15T01:32:43.855Z,96652.02
2023-04-15T01:35:13.557Z,96652.56
2023-04-15T01:37:42.344Z,96652.94
2023-04-15T01:40:10.925Z,96650.93
2023-04-15T01:42:39.092Z,96650.17
2023-04-15T01:45:08.504Z,96650.07
2023-04-15T01:47:39.480Z,96645.00
2023-04-15T01:50:08.694Z,96646.20
2023-04-15T01:52:36.825Z,96647.48
2023-04-15T01:55:06.527Z,96650.73
2023-04-15T01:57:35.086Z,96651.27
2023-04-15T02:00:04.817Z,96653.93
2023-04-15T02:02:41.659Z,96656.69
2023-04-15T02:05:10.070Z,96653.80
2023-04-15T02:07:38.972Z,96648.83
2023-04-15T02:10:07.388Z,96648.71
2023-04-15T02:12:37.068Z,96654.52
2023-04-15T02:15:06.625Z,96650.64
2023-04-15T02:17:37.775Z,96654.21
2023-04-15T02:20:07.224Z,96659.50
2023-04-15T02:22:35.296Z,96658.71
2023-04-15T02:25:03.729Z,96658.33
2023-04-15T02:27:33.389Z,96655.61
2023-04-15T02:30:01.939Z,96658.18
2023-04-15T02:32:29.985Z,96659.46
2023-04-15T02:35:03.138Z,96652.69
2023-04-15T02:37:37.294Z,96654.49
2023-04-15T02:40:07.582Z,96657.58
2023-04-15T02:42:36.225Z,96654.05
2023-04-15T02:45:05.117Z,96656.35
2023-04-15T02:47:36.221Z,96657.34
2023-04-15T02:50:12.826Z,96657.34
2023-04-15T02:52:43.050Z,96659.56
2023-04-15T02:55:11.924Z,96650.39
2023-04-15T02:57:41.448Z,96653.30
2023-04-15T03:00:12.157Z,96652.09
2023-04-15T03:02:47.081Z,96649.27
2023-04-15T03:05:15.568Z,96645.07
2023-04-15T03:07:48.957Z,96643.11
2023-04-15T03:10:17.369Z,96645.77
2023-04-15T03:12:48.065Z,96648.61
2023-04-15T03:15:19.409Z,96653.71
2023-04-15T03:17:49.914Z,96656.77
2023-04-15T03:20:18.498Z,96656.57
2023-04-15T03:22:46.625Z,96656.45
2023-04-15T03:25:14.973Z,96656.35
2023-04-15T03:27:44.108Z,96660.08
2023-04-15T03:30:13.003Z,96660.36
2023-04-15T03:32:41.789Z,96667.42
2023-04-15T03:35:10.117Z,96665.14
2023-04-15T03:37:38.287Z,96664.30
2023-04-15T03:40:07.680Z,96669.23
2023-04-15T03:42:35.598Z,96673.18
2023-04-15T03:45:04.414Z,96675.56
2023-04-15T03:47:32.380Z,96678.03
2023-04-15T03:50:00.685Z,96681.75
2023-04-15T03:52:28.667Z,96683.55
2023-04-15T03:54:57.135Z,96684.55
2023-04-15T03:57:25.121Z,96686.02
2023-04-15T03:59:53.470Z,96685.91
2023-04-15T04:02:23.034Z,96689.58
2023-04-15T04:04:51.512Z,96689.20
2023-04-15T04:07:19.746Z,96691.25
2023-04-15T04:09:48.022Z,96696.36
2023-04-15T04:12:16.302Z,96698.56
2023-04-15T04:14:44.533Z,96702.41
2023-04-15T04:17:12.706Z,96701.43
2023-04-15T04:19:41.015Z,96702.36
2023-04-15T04:22:09.000Z,96701.91
2023-04-15T04:24:37.060Z,96706.48
2023-04-15T04:27:05.746Z,96708.49
2023-04-15T04:29:33.866Z,96707.19
2023-04-15T04:32:02.211Z,96707.02
2023-04-15T04:34:30.423Z,96710.51
2023-04-15T04:36:58.632Z,96716.83
2023-04-15T04:39:26.675Z,96721.52
2023-04-15T04:41:54.985Z,96721.98
2023-04-15T04:44:22.877Z,96724.95
2023-04-15T04:46:50.965Z,96732.11
2023-04-15T04:49:18.993Z,96730.92
2023-04-15T04:51:48.705Z,96726.51
2023-04-15T04:54:17.282Z,96723.67
2023-04-15T04:56:45.358Z,96725.83
2023-04-15T04:59:13.426Z,96720.33
2023-04-15T05:01:42.196Z,96721.41
2023-04-15T05:04:10.394Z,96719.64
2023-04-15T05:06:38.865Z,96721.62
2023-04-15T05:09:07.455Z,96718.84
2023-04-15T05:11:35.469Z,96721.88
2023-04-15T05:14:03.595Z,96723.29
2023-04-15T05:16:31.614Z,96721.05
2023-04-15T05:18:59.907Z,96723.67
2023-04-15T05:21:28.419Z,96728.59
2023-04-15T05:23:56.544Z,96730.55
2023-04-15T05:26:24.614Z,96733.83
2023-04-15T05:28:52.737Z,96737.20
2023-04-15T05:31:21.321Z,96740.59
2023-04-15T05:33:49.487Z,96743.22
2023-04-15T05:36:17.681Z,96745.73
2023-04-15T05:38:46.251Z,96750.78
2023-04-15T05:41:18.387Z,96751.15
2023-04-15T05:43:48.135Z,96747.77
2023-04-15T05:46:16.663Z,96747.51
2023-04-15T05:48:44.764Z,96748.77
2023-04-15T05:51:12.946Z,96748.38
2023-04-15T05:53:44.179Z,96752.20
2023-04-15T05:56:12.344Z,96760.05
2023-04-15T05:58:40.429Z,96765.26
2023-04-15T06:01:08.609Z,96768.30
2023-04-15T06:03:36.929Z,96773.19
2023-04-15T06:06:04.989Z,96770.36
2023-04-15T06:08:33.200Z,96772.68
2023-04-15T06:11:01.685Z,96766.73
2023-04-15T06:13:29.873Z,96768.45
2023-04-15T06:15:57.883Z,96764.53
2023-04-15T06:18:26.015Z,96760.35
2023-04-15T06:20:54.095Z,96762.65
2023-04-15T06:23:22.353Z,96769.44
2023-04-15T06:25:50.512Z,96771.05
2023-04-15T06:28:18.829Z,96774.70
2023-04-15T06:30:47.081Z,96774.29
2023-04-15T06:33:16.083Z,96778.19
2023-04-15T06:35:44.148Z,96782.51
2023-04-15T06:38:12.123Z,96783.21
2023-04-15T06:40:40.700Z,96783.17
2023-04-15T06:43:09.345Z,96786.33
2023-04-15T06:45:37.411Z,96781.14
2023-04-15T06:48:06.042Z,96780.38
2023-04-15T06:50:35.759Z,96781.41
2023-04-15T06:53:03.926Z,96780.89
2023-04-15T06:55:32.415Z,96787.21
2023-04-15T06:58:00.760Z,96792.48
2023-04-15T07:00:28.854Z,96801.48
2023-04-15T07:02:57.290Z,96806.95
2023-04-15T07:05:25.614Z,96801.86
2023-04-15T07:07:53.591Z,96807.52
2023-04-15T07:10:22.234Z,96809.33
2023-04-15T07:12:51.768Z,96801.13
2023-04-15T07:15:20.189Z,96792.89
2023-04-15T07:17:48.440Z,96788.92
2023-04-15T07:20:16.691Z,96791.83
2023-04-15T07:22:44.666Z,96796.38
2023-04-15T07:25:12.731Z,96803.65
2023-04-15T07:27:41.009Z,96802.16
2023-04-15T07:30:10.018Z,96795.15
2023-04-15T07:32:38.217Z,96792.04
2023-04-15T07:35:06.944Z,96788.69
2023-04-15T07:37:35.027Z,96788.30
2023-04-15T07:40:07.110Z,96782.30
2023-04-15T07:42:35.987Z,96784.25
2023-04-15T07:45:04.256Z,96783.73
2023-04-15T07:47:32.306Z,96781.94
2023-04-15T07:50:00.689Z,96778.47
2023-04-15T07:52:28.991Z,96770.45
2023-04-15T07:54:57.051Z,96768.06
2023-04-15T07:57:25.233Z,96770.33
2023-04-15T07:59:53.718Z,96769.84
2023-04-15T08:02:22.527Z,96774.73
2023-04-15T08:04:50.960Z,96773.11
2023-04-15T08:07:19.251Z,96773.34
2023-04-15T08:09:47.729Z,96773.16
2023-04-15T08:12:16.224Z,96772.14
2023-04-15T08:14:44.508Z,96767.89
2023-04-15T08:17:12.568Z,96770.41
2023-04-15T08:19:41.149Z,96770.64
2023-04-15T08:22:10.430Z,96768.80
2023-04-15T08:24:43.960Z,96770.29
2023-04-15T08:27:12.114Z,96766.81
2023-04-15T08:29:40.823Z,96764.21
2023-04-15T08:32:09.890Z,96766.29
2023-04-15T08:34:37.858Z,96768.22
2023-04-15T08:37:06.544Z,96765.55
2023-04-15T08:39:34.620Z,96763.21
2023-04-15T08:42:04.149Z,96764.45
2023-04-15T08:44:35.164Z,96767.41
2023-04-15T08:47:06.182Z,96771.02
2023-04-15T08:49:37.685Z,96770.29
2023-04-15T08:52:06.741Z,96772.15
2023-04-15T08:54:35.736Z,96768.33
2023-04-15T08:57:04.234Z,96769.44
2023-04-15T08:59:32.782Z,96769.42
2023-04-15T09:02:01.413Z,96764.46
2023-04-15T09:04:30.071Z,96770.88
2023-04-15T09:06:58.555Z,96773.33
2023-04-15T09:09:28.161Z,96772.41
2023-04-15T09:11:56.953Z,96768.45
2023-04-15T09:14:25.338Z,96767.20
2023-04-15T09:17:01.512Z,96767.48
2023-04-15T09:19:31.186Z,96769.47
2023-04-15T09:22:00.006Z,96771.98
2023-04-15T09:24:37.716Z,96772.09
2023-04-15T09:27:06.494Z,96766.69
2023-04-15T09:29:34.659Z,96758.54
2023-04-15T09:32:16.732Z,96754.48
2023-04-15T09:34:44.737Z,96754.39
2023-04-15T09:37:28.605Z,96750.71
2023-04-15T09:39:59.547Z,96740.63
2023-04-15T09:42:28.462Z,96741.91
2023-04-15T09:44:56.743Z,96740.49
2023-04-15T09:47:32.408Z,96747.91
2023-04-15T09:50:02.122Z,96741.84
2023-04-15T09:52:30.996Z,96739.46
2023-04-15T09:55:00.928Z,96745.20
2023-04-15T09:57:36.644Z,96744.65
2023-04-15T10:00:08.275Z,96742.80
2023-04-15T10:02:38.511Z,96748.79
2023-04-15T10:05:08.689Z,96758.60
2023-04-15T10:07:38.118Z,96764.30
2023-04-15T10:10:07.281Z,96749.92
2023-04-15T10:12:38.405Z,96742.12
2023-04-15T10:15:11.393Z,96749.25
2023-04-15T10:17:44.334Z,96753.69
2023-04-15T10:20:14.737Z,96742.48
2023-04-15T10:22:45.473Z,96743.29
2023-04-15T10:25:16.588Z,96730.73
2023-04-15T10:27:45.669Z,96726.55
2023-04-15T10:30:14.518Z,96725.65
2023-04-15T10:32:43.511Z,96723.73
2023-04-15T10:35:12.156Z,96718.67
2023-04-15T10:37:40.198Z,96720.05
2023-04-15T10:40:29.002Z,96720.32
2023-04-15T10:42:59.678Z,96714.64
2023-04-15T10:45:32.265Z,96712.59
2023-04-15T10:48:03.741Z,96713.32
2023-04-15T10:50:32.966Z,96708.34
2023-04-15T10:53:04.998Z,96712.52
2023-04-15T10:55:34.911Z,96712.30
2023-04-15T10:58:03.647Z,96712.88
2023-04-15T11:00:34.591Z,96714.90
2023-04-15T11:03:08.333Z,96719.46
2023-04-15T11:05:39.760Z,96710.83
2023-04-15T11:08:09.041Z,96705.39
2023-04-15T11:10:37.018Z,96705.96
2023-04-15T11:13:11.261Z,96703.51
2023-04-15T11:15:41.799Z,96706.27
2023-04-15T11:18:13.656Z,96710.73
2023-04-15T11:21:03.707Z,96708.71
2023-04-15T11:23:49.432Z,96718.46
2023-04-15T11:26:17.841Z,96715.29
2023-04-15T11:28:47.081Z,96718.86
2023-04-15T11:31:18.542Z,96719.05
2023-04-15T11:33:56.690Z,96710.94
2023-04-15T11:36:29.357Z,96714.55
2023-04-15T11:38:59.146Z,96713.38
2023-04-15T11:41:27.451Z,96716.16
2023-04-15T11:43:55.608Z,96710.95
2023-04-15T11:46:31.027Z,96706.98
2023-04-15T11:49:00.340Z,96711.42
2023-04-15T11:51:33.100Z,96706.63
2023-04-15T11:54:01.298Z,96703.98
2023-04-15T11:56:29.650Z,96705.17
2023-04-15T11:59:03.079Z,96707.57
2023-04-15T12:01:43.100Z,96710.67
2023-04-15T12:04:13.012Z,96707.71
2023-04-15T12:06:41.383Z,96709.55
2023-04-15T12:09:16.996Z,96706.48
2023-04-15T12:11:53.103Z,96704.62
2023-04-15T12:14:32.041Z,96705.66
2023-04-15T12:17:05.535Z,96707.92
2023-04-15T12:19:37.724Z,96713.29
2023-04-15T12:22:15.382Z,96708.48
2023-04-15T12:24:47.076Z,96706.67
2023-04-15T12:27:16.521Z,96710.27
2023-04-15T12:29:44.698Z,96712.27
2023-04-15T12:32:17.705Z,96706.69
2023-04-15T12:34:51.602Z,96702.19
2023-04-15T12:37:19.775Z,96700.66
2023-04-15T12:39:50.533Z,96698.55
2023-04-15T12:42:19.160Z,96702.92
2023-04-15T12:44:47.881Z,96705.38
2023-04-15T12:47:16.256Z,96698.20
2023-04-15T12:49:44.333Z,96702.55
2023-04-15T12:52:12.291Z,96701.89
2023-04-15T12:54:40.643Z,96699.23
2023-04-15T12:57:09.156Z,96702.91
2023-04-15T12:59:37.670Z,96706.95
2023-04-15T13:02:06.260Z,96712.44
2023-04-15T13:04:34.634Z,96705.25
2023-04-15T13:07:03.189Z,96700.47
2023-04-15T13:09:31.458Z,96696.71
2023-04-15T13:11:59.761Z,96695.80
2023-04-15T13:14:27.951Z,96703.74
2023-04-15T13:16:56.437Z,96707.98
2023-04-15T13:19:24.869Z,96712.75
2023-04-15T13:21:52.927Z,96725.27
2023-04-15T13:24:21.161Z,96734.58
2023-04-15T13:26:50.489Z,96739.05
2023-04-15T13:29:18.990Z,96736.00
2023-04-15T13:31:47.087Z,96737.15
2023-04-15T13:34:15.735Z,96741.09
2023-04-15T13:36:43.822Z,96747.21
2023-04-15T13:39:11.834Z,96747.76
2023-04-15T13:41:41.045Z,96750.23
2023-04-15T13:44:09.013Z,96757.19
2023-04-15T13:46:38.006Z,96761.86
2023-04-15T13:49:06.324Z,96768.85
2023-04-15T13:51:36.995Z,96771.87
2023-04-15T13:54:05.452Z,96785.13
2023-04-15T13:56:34.008Z,96784.71
2023-04-15T13:59:03.483Z,96785.35
2023-04-15T14:01:31.777Z,96781.40
2023-04-15T14:03:59.960Z,96787.52
2023-04-15T14:06:29.270Z,96786.10
2023-04-15T14:08:57.537Z,96782.15
2023-04-15T14:11:25.710Z,96783.62
2023-04-15T14:13:53.705Z,96783.77
2023-04-15T14:16:21.996Z,96789.85
2023-04-15T14:18:50.023Z,96796.73
2023-04-15T14:21:18.082Z,96806.55
2023-04-15T14:23:46.472Z,96811.83
2023-04-15T14:26:14.867Z,96813.95
2023-04-15T14:28:45.147Z,96812.44
2023-04-15T14:31:14.497Z,96812.37
2023-04-15T14:33:43.043Z,96815.77
2023-04-15T14:36:11.223Z,96819.95
2023-04-15T14:38:40.201Z,96823.91
2023-04-15T14:41:08.797Z,96827.06
2023-04-15T14:43:36.978Z,96831.84
2023-04-15T14:46:05.209Z,96834.03
2023-04-15T14:48:33.431Z,96828.20
2023-04-15T14:51:01.554Z,96826.16
2023-04-15T14:53:29.735Z,96826.78
2023-04-15T14:55:57.833Z,96831.42
2023-04-15T14:58:26.215Z,96837.73
2023-04-15T15:00:54.514Z,96843.48
2023-04-15T15:03:24.028Z,96844.02
2023-04-15T15:05:52.363Z,96850.26
2023-04-15T15:08:20.728Z,96857.84
2023-04-15T15:10:49.883Z,96865.75
2023-04-15T15:13:18.994Z,96871.92
2023-04-15T15:15:49.767Z,96878.34
2023-04-15T15:18:19.406Z,96895.24
2023-04-15T15:20:48.223Z,96903.02
2023-04-15T15:23:16.655Z,96919.60
2023-04-15T15:25:45.952Z,96962.86
2023-04-15T15:28:14.147Z,96982.12
2023-04-15T15:30:42.182Z,96983.31
2023-04-15T15:33:10.246Z,96980.96
2023-04-15T15:35:39.161Z,96979.25
2023-04-15T15:38:07.324Z,96972.27
2023-04-15T15:40:35.403Z,96960.29
2023-04-15T15:43:04.496Z,96958.66
2023-04-15T15:45:32.780Z,96949.78
2023-04-15T15:48:01.934Z,96934.06
2023-04-15T15:50:30.126Z,96926.54
2023-04-15T15:52:58.973Z,96922.08
2023-04-15T15:55:27.601Z,96914.77
2023-04-15T15:57:55.683Z,96909.65
2023-04-15T16:00:24.672Z,96906.17
2023-04-15T16:03:06.888Z,96909.77
2023-04-15T16:05:36.798Z,96906.23
2023-04-15T16:08:05.537Z,96899.09
2023-04-15T16:10:33.854Z,96897.05
2023-04-15T16:13:02.519Z,96895.44
2023-04-15T16:15:30.612Z,96893.19
2023-04-15T16:17:58.642Z,96895.77
2023-04-15T16:20:28.543Z,96895.77
2023-04-15T16:22:58.604Z,96896.08
2023-04-15T16:25:26.878Z,96890.97
2023-04-15T16:28:03.416Z,96895.59
2023-04-15T16:30:41.554Z,96900.56
2023-04-15T16:33:10.208Z,96901.62
2023-04-15T16:35:38.215Z,96904.32
2023-04-15T16:38:06.800Z,96906.63
2023-04-15T16:40:35.191Z,96906.42
2023-04-15T16:43:03.700Z,96904.08
2023-04-15T16:45:31.832Z,96907.39
2023-04-15T16:48:00.206Z,96906.86
2023-04-15T16:50:28.582Z,96906.70
2023-04-15T16:52:56.555Z,96904.80
2023-04-15T16:55:24.719Z,96905.61
2023-04-15T16:58:03.254Z,96909.40
2023-04-15T17:00:32.950Z,96916.45
2023-04-15T17:03:01.540Z,96922.80
2023-04-15T17:05:33.717Z,96926.33
2023-04-15T17:08:01.784Z,96928.59
2023-04-15T17:10:31.279Z,96938.51
2023-04-15T17:12:59.858Z,96945.18
2023-04-15T17:15:28.079Z,96952.30
2023-04-15T17:17:56.531Z,96956.44
2023-04-15T17:20:24.879Z,96965.48
2023-04-15T17:22:52.974Z,96970.95
2023-04-15T17:25:21.134Z,96979.48
2023-04-15T17:27:49.206Z,96980.20
2023-04-15T17:30:17.479Z,96984.88
2023-04-15T17:32:45.653Z,96987.73
2023-04-15T17:35:13.747Z,96989.05
2023-04-15T17:37:41.880Z,96994.38
2023-04-15T17:40:10.801Z,97003.23
2023-04-15T17:42:38.732Z,97011.98
2023-04-15T17:45:07.837Z,97019.45
2023-04-15T17:47:35.871Z,97026.66
2023-04-15T17:50:04.735Z,97035.36
2023-04-15T17:52:32.768Z,97037.25
2023-04-15T17:55:00.961Z,97039.66
2023-04-15T17:57:29.330Z,97045.85
2023-04-15T17:59:58.105Z,97055.91
2023-04-15T18:02:26.392Z,97063.54
2023-04-15T18:04:54.884Z,97067.26
2023-04-15T18:07:23.266Z,97068.77
2023-04-15T18:09:53.356Z,97072.25
2023-04-15T18:12:21.374Z,97074.83
2023-04-15T18:14:49.404Z,97082.09
2023-04-15T18:17:17.813Z,97087.38
2023-04-15T18:19:46.631Z,97089.23
2023-04-15T18:22:14.735Z,97093.04
2023-04-15T18:24:42.700Z,97097.50
2023-04-15T18:27:10.981Z,97102.29
2023-04-15T18:29:39.325Z,97107.87
2023-04-15T18:32:07.405Z,97113.48
2023-04-15T18:34:35.779Z,97121.63
2023-04-15T18:37:05.518Z,97131.99
2023-04-15T18:39:33.591Z,97139.42
2023-04-15T18:42:02.175Z,97139.48
2023-04-15T18:44:30.512Z,97145.34
2023-04-15T18:46:58.482Z,97147.39
2023-04-15T18:49:27.609Z,97148.23
2023-04-15T18:51:55.679Z,97147.52
2023-04-15T18:54:23.756Z,97147.77
2023-04-15T18:56:51.832Z,97149.05
2023-04-15T18:59:29.118Z,97154.36
2023-04-15T19:02:00.564Z,97158.48
2023-04-15T19:04:31.460Z,97158.85
2023-04-15T19:06:59.771Z,97159.30
2023-04-15T19:09:29.018Z,97155.81
2023-04-15T19:11:57.718Z,97152.61
2023-04-15T19:14:25.824Z,97150.48
2023-04-15T19:16:54.054Z,97150.14
2023-04-15T19:19:22.213Z,97148.81
2023-04-15T19:21:50.561Z,97152.05
2023-04-15T19:24:19.609Z,97154.70
2023-04-15T19:26:50.819Z,97157.48
2023-04-15T19:29:19.173Z,97158.53
2023-04-15T19:31:47.133Z,97154.48
2023-04-15T19:34:15.512Z,97157.80
2023-04-15T19:36:43.585Z,97162.02
2023-04-15T19:39:11.736Z,97166.46
2023-04-15T19:41:40.257Z,97170.83
2023-04-15T19:44:08.303Z,97175.34
2023-04-15T19:46:36.311Z,97172.94
2023-04-15T19:49:04.804Z,97171.86
2023-04-15T19:51:33.250Z,97175.23
2023-04-15T19:54:01.311Z,97173.28
2023-04-15T19:56:30.409Z,97172.42
2023-04-15T19:59:00.094Z,97170.95
2023-04-15T20:01:28.314Z,97165.70
2023-04-15T20:03:56.881Z,97166.04
2023-04-15T20:06:25.144Z,97166.52
2023-04-15T20:08:53.311Z,97166.04
2023-04-15T20:11:22.309Z,97175.08
2023-04-15T20:13:50.379Z,97182.31
2023-04-15T20:16:18.395Z,97183.07
2023-04-15T20:18:46.527Z,97181.67
2023-04-15T20:21:14.711Z,97182.22
2023-04-15T20:23:42.862Z,97184.36
2023-04-15T20:26:10.829Z,97186.96
2023-04-15T20:28:39.104Z,97187.98
2023-04-15T20:31:07.546Z,97187.29
2023-04-15T20:33:35.778Z,97190.00
2023-04-15T20:36:04.031Z,97192.80
2023-04-15T20:38:32.104Z,97195.04
2023-04-15T20:41:00.175Z,97196.91
2023-04-15T20:43:28.350Z,97194.80
2023-04-15T20:45:58.774Z,97198.79
2023-04-15T20:48:30.650Z,97208.76
2023-04-15T20:50:59.014Z,97214.79
2023-04-15T20:53:27.181Z,97218.39
2023-04-15T20:55:55.150Z,97215.17
2023-04-15T20:58:23.319Z,97214.61
2023-04-15T21:00:52.661Z,97218.63
2023-04-15T21:03:22.471Z,97219.44
2023-04-15T21:05:51.014Z,97222.89
2023-04-15T21:08:19.192Z,97221.95
2023-04-15T21:10:47.264Z,97224.13
2023-04-15T21:13:17.674Z,97227.06
2023-04-15T21:15:47.685Z,97227.55
2023-04-15T21:18:15.891Z,97231.48
2023-04-15T21:20:43.951Z,97232.34
2023-04-15T21:23:13.079Z,97233.45
2023-04-15T21:25:41.327Z,97234.74
2023-04-15T21:28:09.500Z,97233.31
2023-04-15T21:30:37.370Z,97233.20
2023-04-15T21:33:05.573Z,97237.44
2023-04-15T21:35:33.606Z,97241.85
2023-04-15T21:38:01.783Z,97240.23
2023-04-15T21:40:30.556Z,97241.10
2023-04-15T21:42:58.536Z,97245.48
2023-04-15T21:45:26.613Z,97247.06
2023-04-15T21:48:04.402Z,97249.06
2023-04-15T21:50:37.306Z,97250.55
2023-04-15T21:53:07.857Z,97252.95
2023-04-15T21:55:36.627Z,97253.94
2023-04-15T21:58:04.678Z,97252.41
2023-04-15T22:00:32.838Z,97249.74
2023-04-15T22:03:01.021Z,97249.63
2023-04-15T22:05:29.198Z,97251.39
2023-04-15T22:07:58.492Z,97250.02
2023-04-15T22:10:26.738Z,97255.14
2023-04-15T22:12:55.042Z,97259.75
2023-04-15T22:15:23.825Z,97260.54
2023-04-15T22:17:51.946Z,97260.51
2023-04-15T22:20:21.705Z,97265.93
2023-04-15T22:22:49.774Z,97265.33
2023-04-15T22:25:22.579Z,97269.27
2023-04-15T22:27:50.671Z,97271.33
2023-04-15T22:30:19.220Z,97275.83
2023-04-15T22:32:47.314Z,97277.13
2023-04-15T22:35:15.458Z,97279.41
2023-04-15T22:37:43.419Z,97284.34
2023-04-15T22:40:12.229Z,97290.23
2023-04-15T22:42:40.590Z,97292.68
2023-04-15T22:45:09.379Z,97295.52
2023-04-15T22:47:37.581Z,97298.46
2023-04-15T22:50:06.849Z,97303.92
2023-04-15T22:52:34.809Z,97300.54
2023-04-15T22:55:02.846Z,97298.63
2023-04-15T22:57:30.928Z,97297.10
2023-04-15T22:59:59.043Z,97296.10
2023-04-15T23:02:27.460Z,97298.03
2023-04-15T23:04:56.711Z,97295.25
2023-04-15T23:07:24.780Z,97296.33
2023-04-15T23:09:52.737Z,97295.92
2023-04-15T23:12:20.816Z,97296.64
2023-04-15T23:14:48.880Z,97297.08
2023-04-15T23:17:16.958Z,97296.63
2023-04-15T23:19:45.030Z,97297.39
2023-04-15T23:22:13.011Z,97302.21
2023-04-15T23:24:40.964Z,97302.02
2023-04-15T23:27:09.144Z,97301.84
2023-04-15T23:29:37.418Z,97305.01
2023-04-15T23:32:06.262Z,97304.99
2023-04-15T23:34:34.476Z,97304.69
2023-04-15T23:37:02.447Z,97305.05
2023-04-15T23:39:30.717Z,97305.09
2023-04-15T23:41:58.783Z,97303.91
2023-04-15T23:44:27.269Z,97307.90
2023-04-15T23:46:55.597Z,97304.26
2023-04-15T23:49:23.834Z,97300.26
2023-04-15T23:51:51.910Z,97298.97
2023-04-15T23:54:20.173Z,97303.86
2023-04-15T23:56:48.232Z,97305.14
2023-04-15T23:59:16.310Z,97305.87
